createdAt,value
2022-12-18T00:00:14.178Z,-8.01
2022-12-18T00:02:16.988Z,-8.12
2022-12-18T00:04:23.055Z,-8.04
2022-12-18T00:06:27.148Z,-8.27
2022-12-18T00:08:31.110Z,-7.99
2022-12-18T00:10:33.699Z,-8.16
2022-12-18T00:12:36.333Z,-8.31
2022-12-18T00:14:38.956Z,-8.40
2022-12-18T00:16:46.201Z,-8.41
2022-12-18T00:18:49.313Z,-8.42
2022-12-18T00:20:51.935Z,-8.06
2022-12-18T00:22:54.633Z,-8.33
2022-12-18T00:24:58.575Z,-8.48
2022-12-18T00:27:01.243Z,-8.52
2022-12-18T00:29:06.589Z,-8.52
2022-12-18T00:31:11.223Z,-8.45
2022-12-18T00:33:13.914Z,-8.44
2022-12-18T00:35:16.578Z,-8.38
2022-12-18T00:37:20.466Z,-8.36
2022-12-18T00:39:23.265Z,-8.61
2022-12-18T00:41:45.729Z,-8.58
2022-12-18T00:43:48.368Z,-8.58
2022-12-18T00:45:51.030Z,-8.43
2022-12-18T00:47:53.744Z,-8.45
2022-12-18T00:49:56.356Z,-8.45
2022-12-18T00:51:58.968Z,-8.55
2022-12-18T00:54:01.925Z,-8.58
2022-12-18T00:56:04.777Z,-8.55
2022-12-18T00:58:08.854Z,-8.59
2022-12-18T01:00:14.824Z,-8.61
2022-12-18T01:02:17.503Z,-8.61
2022-12-18T01:04:20.453Z,-8.64
2022-12-18T01:06:23.101Z,-8.63
2022-12-18T01:08:25.703Z,-8.52
2022-12-18T01:10:28.480Z,-8.69
2022-12-18T01:12:31.070Z,-8.93
2022-12-18T01:14:35.083Z,-8.87
2022-12-18T01:16:37.787Z,-8.83
2022-12-18T01:18:40.941Z,-8.79
2022-12-18T01:20:43.606Z,-8.78
2022-12-18T01:22:46.256Z,-8.87
2022-12-18T01:24:48.888Z,-8.93
2022-12-18T01:26:51.523Z,-8.96
2022-12-18T01:28:56.137Z,-8.94
2022-12-18T01:31:10.624Z,-8.96
2022-12-18T01:33:13.210Z,-8.94
2022-12-18T01:35:15.918Z,-8.99
2022-12-18T01:37:18.551Z,-9.01
2022-12-18T01:39:21.429Z,-9.00
2022-12-18T01:41:26.587Z,-9.02
2022-12-18T01:43:46.888Z,-9.00
2022-12-18T01:45:49.609Z,-9.02
2022-12-18T01:47:55.327Z,-9.04
2022-12-18T01:50:00.616Z,-9.03
2022-12-18T01:52:03.320Z,-9.05
2022-12-18T01:54:06.033Z,-9.03
2022-12-18T01:56:09.228Z,-9.04
2022-12-18T01:58:12.154Z,-9.06
2022-12-18T02:00:18.054Z,-9.04
2022-12-18T02:02:22.013Z,-8.99
2022-12-18T02:04:27.789Z,-8.96
2022-12-18T02:06:36.516Z,-8.91
2022-12-18T02:08:49.915Z,-8.88
2022-12-18T02:11:06.986Z,-8.84
2022-12-18T02:13:16.337Z,-8.81
2022-12-18T02:15:26.292Z,-9.03
2022-12-18T02:17:36.911Z,-8.98
2022-12-18T02:19:49.696Z,-8.97
2022-12-18T02:22:00.124Z,-8.90
2022-12-18T02:24:17.887Z,-8.89
2022-12-18T02:26:28.284Z,-8.89
2022-12-18T02:28:38.040Z,-8.84
2022-12-18T02:30:43.218Z,-8.77
2022-12-18T02:32:50.810Z,-8.65
2022-12-18T02:34:56.498Z,-8.64
2022-12-18T02:37:02.464Z,-8.60
2022-12-18T02:39:08.290Z,-8.62
2022-12-18T02:41:12.928Z,-8.62
2022-12-18T02:43:17.893Z,-8.62
2022-12-18T02:45:20.711Z,-8.65
2022-12-18T02:47:26.093Z,-8.65
2022-12-18T02:49:37.723Z,-8.64
2022-12-18T02:51:45.498Z,-8.61
2022-12-18T02:53:55.433Z,-8.66
2022-12-18T02:56:08.561Z,-8.71
2022-12-18T02:58:17.710Z,-8.67
2022-12-18T03:00:25.142Z,-8.61
2022-12-18T03:02:35.049Z,-8.60
2022-12-18T03:04:45.716Z,-8.61
2022-12-18T03:06:52.302Z,-8.53
2022-12-18T03:09:00.476Z,-8.57
2022-12-18T03:11:05.991Z,-8.56
2022-12-18T03:13:14.005Z,-8.57
2022-12-18T03:15:20.687Z,-8.50
2022-12-18T03:17:27.117Z,-8.51
2022-12-18T03:19:33.429Z,-8.61
2022-12-18T03:21:41.039Z,-8.58
2022-12-18T03:23:49.448Z,-8.59
2022-12-18T03:25:56.330Z,-8.61
2022-12-18T03:28:03.385Z,-8.64
2022-12-18T03:30:09.191Z,-8.59
2022-12-18T03:32:14.264Z,-8.54
2022-12-18T03:34:24.663Z,-8.61
2022-12-18T03:36:27.708Z,-8.39
2022-12-18T03:38:30.370Z,-8.50
2022-12-18T03:40:42.615Z,-8.45
2022-12-18T03:42:50.715Z,-8.38
2022-12-18T03:44:59.830Z,-8.49
2022-12-18T03:47:09.840Z,-8.45
2022-12-18T03:49:16.657Z,-8.54
2022-12-18T03:51:27.308Z,-8.47
2022-12-18T03:53:37.586Z,-8.52
2022-12-18T03:55:41.547Z,-8.64
2022-12-18T03:57:46.270Z,-8.66
2022-12-18T03:59:52.530Z,-8.63
2022-12-18T04:01:57.504Z,-8.75
2022-12-18T04:04:02.309Z,-8.74
2022-12-18T04:06:06.542Z,-8.73
2022-12-18T04:08:10.713Z,-8.77
2022-12-18T04:10:14.416Z,-8.72
2022-12-18T04:12:17.158Z,-8.63
2022-12-18T04:14:19.766Z,-8.68
2022-12-18T04:16:22.375Z,-8.63
2022-12-18T04:18:25.033Z,-8.70
2022-12-18T04:20:27.651Z,-8.70
2022-12-18T04:22:30.300Z,-8.71
2022-12-18T04:24:34.327Z,-8.73
2022-12-18T04:26:36.983Z,-8.74
2022-12-18T04:28:39.642Z,-8.73
2022-12-18T04:30:42.261Z,-8.73
2022-12-18T04:32:50.498Z,-8.72
2022-12-18T04:34:54.761Z,-8.73
2022-12-18T04:36:57.369Z,-8.70
2022-12-18T04:39:00.262Z,-8.69
2022-12-18T04:41:04.281Z,-8.63
2022-12-18T04:43:07.427Z,-8.67
2022-12-18T04:45:11.024Z,-8.70
2022-12-18T04:47:13.606Z,-8.72
2022-12-18T04:49:19.054Z,-8.86
2022-12-18T04:51:26.427Z,-8.81
2022-12-18T04:53:29.479Z,-8.87
2022-12-18T04:55:32.158Z,-8.84
2022-12-18T04:57:36.217Z,-8.87
2022-12-18T04:59:38.816Z,-8.90
2022-12-18T05:01:41.480Z,-8.89
2022-12-18T05:03:45.399Z,-8.89
2022-12-18T05:05:51.439Z,-8.94
2022-12-18T05:07:54.496Z,-8.95
2022-12-18T05:09:59.934Z,-8.99
2022-12-18T05:12:02.526Z,-9.02
2022-12-18T05:14:09.212Z,-9.03
2022-12-18T05:16:12.313Z,-9.00
2022-12-18T05:18:14.971Z,-9.02
2022-12-18T05:20:19.112Z,-9.11
2022-12-18T05:22:21.724Z,-9.11
2022-12-18T05:24:24.398Z,-9.07
2022-12-18T05:26:27.006Z,-9.11
2022-12-18T05:28:32.037Z,-9.08
2022-12-18T05:30:36.195Z,-9.06
2022-12-18T05:32:39.363Z,-9.06
2022-12-18T05:34:41.970Z,-9.06
2022-12-18T05:36:44.756Z,-9.01
2022-12-18T05:38:47.596Z,-9.02
2022-12-18T05:40:50.627Z,-9.05
2022-12-18T05:42:53.223Z,-9.12
2022-12-18T05:44:55.814Z,-9.27
2022-12-18T05:46:59.899Z,-9.27
2022-12-18T05:49:02.781Z,-9.29
2022-12-18T05:51:07.906Z,-9.23
2022-12-18T05:53:11.600Z,-9.18
2022-12-18T05:55:14.242Z,-9.32
2022-12-18T05:57:17.211Z,-9.38
2022-12-18T05:59:19.810Z,-9.40
2022-12-18T06:01:24.861Z,-9.50
2022-12-18T06:03:33.727Z,-9.44
2022-12-18T06:05:38.163Z,-9.43
2022-12-18T06:07:41.041Z,-9.48
2022-12-18T06:09:43.737Z,-9.44
2022-12-18T06:11:46.316Z,-9.52
2022-12-18T06:13:57.640Z,-9.59
2022-12-18T06:16:04.141Z,-9.59
2022-12-18T06:18:06.950Z,-9.64
2022-12-18T06:20:11.765Z,-9.66
2022-12-18T06:22:14.319Z,-9.63
2022-12-18T06:24:17.259Z,-9.55
2022-12-18T06:26:24.634Z,-9.63
2022-12-18T06:28:30.404Z,-9.71
2022-12-18T06:30:32.983Z,-9.68
2022-12-18T06:32:35.827Z,-9.64
2022-12-18T06:34:39.798Z,-9.55
2022-12-18T06:36:43.726Z,-9.66
2022-12-18T06:38:46.470Z,-9.68
2022-12-18T06:40:49.050Z,-9.84
2022-12-18T06:42:51.638Z,-9.82
2022-12-18T06:44:54.643Z,-9.82
2022-12-18T06:46:57.382Z,-9.70
2022-12-18T06:48:59.994Z,-9.86
2022-12-18T06:51:03.407Z,-9.96
2022-12-18T06:53:07.475Z,-9.91
2022-12-18T06:55:10.455Z,-9.97
2022-12-18T06:57:13.187Z,-10.01
2022-12-18T06:59:16.641Z,-10.01
2022-12-18T07:01:19.424Z,-10.02
2022-12-18T07:03:22.070Z,-10.05
2022-12-18T07:05:26.654Z,-10.04
2022-12-18T07:07:29.275Z,-9.97
2022-12-18T07:09:33.251Z,-9.94
2022-12-18T07:11:36.006Z,-9.94
2022-12-18T07:13:38.979Z,-9.96
2022-12-18T07:15:41.875Z,-9.99
2022-12-18T07:17:45.570Z,-9.99
2022-12-18T07:19:48.206Z,-10.01
2022-12-18T07:21:51.825Z,-10.01
2022-12-18T07:23:54.891Z,-10.00
2022-12-18T07:26:03.119Z,-10.02
2022-12-18T07:28:07.039Z,-10.00
2022-12-18T07:30:11.473Z,-9.96
2022-12-18T07:32:14.111Z,-9.91
2022-12-18T07:34:17.004Z,-9.91
2022-12-18T07:36:20.171Z,-9.83
2022-12-18T07:38:23.780Z,-9.80
2022-12-18T07:40:26.399Z,-9.75
2022-12-18T07:42:33.102Z,-9.73
2022-12-18T07:44:35.735Z,-9.75
2022-12-18T07:46:38.390Z,-9.72
2022-12-18T07:48:41.093Z,-9.64
2022-12-18T07:50:43.712Z,-9.66
2022-12-18T07:52:46.297Z,-9.67
2022-12-18T07:54:50.919Z,-9.64
2022-12-18T07:56:53.976Z,-9.60
2022-12-18T07:58:57.939Z,-9.58
2022-12-18T08:01:05.340Z,-9.60
2022-12-18T08:03:09.018Z,-9.61
2022-12-18T08:05:11.810Z,-9.57
2022-12-18T08:07:15.055Z,-9.56
2022-12-18T08:09:17.752Z,-9.53
2022-12-18T08:11:20.345Z,-9.47
2022-12-18T08:13:24.173Z,-9.49
2022-12-18T08:15:28.108Z,-9.47
2022-12-18T08:17:30.726Z,-9.46
2022-12-18T08:19:33.349Z,-9.45
2022-12-18T08:21:35.972Z,-9.46
2022-12-18T08:23:42.654Z,-9.48
2022-12-18T08:25:46.005Z,-9.44
2022-12-18T08:27:48.636Z,-9.37
2022-12-18T08:29:51.273Z,-9.35
2022-12-18T08:31:55.300Z,-9.31
2022-12-18T08:33:58.583Z,-9.32
2022-12-18T08:36:02.259Z,-9.31
2022-12-18T08:38:05.043Z,-9.25
2022-12-18T08:40:09.511Z,-9.21
2022-12-18T08:42:29.865Z,-9.18
2022-12-18T08:44:42.187Z,-9.13
2022-12-18T08:46:45.886Z,-9.11
2022-12-18T08:48:50.273Z,-9.03
2022-12-18T08:50:57.115Z,-8.99
2022-12-18T08:52:59.755Z,-8.99
2022-12-18T08:55:02.485Z,-8.94
2022-12-18T08:57:05.249Z,-8.88
2022-12-18T08:59:07.846Z,-8.83
2022-12-18T09:01:14.591Z,-8.82
2022-12-18T09:03:18.946Z,-8.79
2022-12-18T09:05:22.996Z,-8.75
2022-12-18T09:07:25.637Z,-8.73
2022-12-18T09:09:28.260Z,-8.68
2022-12-18T09:11:31.558Z,-8.64
2022-12-18T09:13:34.185Z,-8.60
2022-12-18T09:15:41.748Z,-8.51
2022-12-18T09:17:44.662Z,-8.49
2022-12-18T09:19:47.349Z,-8.43
2022-12-18T09:21:51.306Z,-8.39
2022-12-18T09:23:54.764Z,-8.45
2022-12-18T09:26:00.790Z,-8.39
2022-12-18T09:28:03.902Z,-8.33
2022-12-18T09:30:07.990Z,-8.28
2022-12-18T09:32:10.590Z,-8.22
2022-12-18T09:34:13.188Z,-8.20
2022-12-18T09:36:18.571Z,-8.16
2022-12-18T09:38:24.091Z,-8.13
2022-12-18T09:40:31.034Z,-8.11
2022-12-18T09:42:34.075Z,-8.05
2022-12-18T09:44:45.003Z,-8.03
2022-12-18T09:46:54.394Z,-8.00
2022-12-18T09:49:01.640Z,-7.95
2022-12-18T09:51:11.362Z,-7.94
2022-12-18T09:53:19.443Z,-7.91
2022-12-18T09:55:32.172Z,-7.88
2022-12-18T09:57:44.702Z,-7.87
2022-12-18T09:59:52.061Z,-7.85
2022-12-18T10:01:55.068Z,-7.83
2022-12-18T10:03:58.292Z,-7.77
2022-12-18T10:06:09.214Z,-7.76
2022-12-18T10:08:17.989Z,-7.73
2022-12-18T10:10:29.523Z,-7.71
2022-12-18T10:12:34.973Z,-7.68
2022-12-18T10:14:47.537Z,-7.63
2022-12-18T10:17:01.509Z,-7.55
2022-12-18T10:19:20.791Z,-7.55
2022-12-18T10:21:32.253Z,-7.47
2022-12-18T10:23:45.045Z,-7.45
2022-12-18T10:25:58.081Z,-7.42
2022-12-18T10:28:11.936Z,-7.39
2022-12-18T10:30:16.887Z,-7.32
2022-12-18T10:32:22.141Z,-7.30
2022-12-18T10:34:25.842Z,-7.28
2022-12-18T10:36:28.701Z,-7.27
2022-12-18T10:38:32.912Z,-7.24
2022-12-18T10:40:50.252Z,-7.16
2022-12-18T10:43:06.818Z,-7.14
2022-12-18T10:45:12.588Z,-7.08
2022-12-18T10:47:20.131Z,-7.03
2022-12-18T10:49:28.671Z,-6.94
2022-12-18T10:51:34.487Z,-6.85
2022-12-18T10:53:39.472Z,-6.79
2022-12-18T10:55:47.963Z,-6.66
2022-12-18T10:57:50.641Z,-6.59
2022-12-18T10:59:56.691Z,-6.53
2022-12-18T11:02:00.408Z,-6.48
2022-12-18T11:04:10.563Z,-6.39
2022-12-18T11:06:15.515Z,-6.33
2022-12-18T11:08:23.781Z,-6.29
2022-12-18T11:10:32.038Z,-6.23
2022-12-18T11:12:34.678Z,-6.20
2022-12-18T11:14:47.360Z,-6.14
2022-12-18T11:19:28.186Z,-6.00
2022-12-18T11:21:30.853Z,-5.94
2022-12-18T11:23:33.672Z,-5.91
2022-12-18T11:25:36.716Z,-5.89
2022-12-18T11:27:40.555Z,-5.85
2022-12-18T11:29:46.616Z,-5.81
2022-12-18T11:31:51.000Z,-5.78
2022-12-18T11:34:28.033Z,-5.79
2022-12-18T11:36:30.660Z,-5.77
2022-12-18T11:38:36.346Z,-5.73
2022-12-18T11:40:42.152Z,-5.68
2022-12-18T11:42:50.129Z,-5.64
2022-12-18T11:44:57.153Z,-5.62
2022-12-18T11:47:05.595Z,-5.57
2022-12-18T11:49:15.484Z,-5.55
2022-12-18T11:51:27.373Z,-5.47
2022-12-18T11:53:31.864Z,-5.46
2022-12-18T11:55:53.088Z,-5.44
2022-12-18T11:58:01.896Z,-5.38
2022-12-18T12:00:15.912Z,-5.38
2022-12-18T12:02:43.603Z,-5.32
2022-12-18T12:04:58.258Z,-5.28
2022-12-18T12:07:13.748Z,-5.18
2022-12-18T12:09:26.150Z,-5.18
2022-12-18T12:11:37.118Z,-5.15
2022-12-18T12:13:49.016Z,-5.10
2022-12-18T12:16:02.192Z,-5.07
2022-12-18T12:18:15.239Z,-5.03
2022-12-18T12:20:22.680Z,-5.03
2022-12-18T12:22:35.403Z,-4.96
2022-12-18T12:24:48.099Z,-4.92
2022-12-18T12:26:59.775Z,-4.88
2022-12-18T12:29:10.531Z,-4.79
2022-12-18T12:31:22.139Z,-4.78
2022-12-18T12:33:36.184Z,-4.74
2022-12-18T12:35:49.461Z,-4.70
2022-12-18T12:38:07.214Z,-4.66
2022-12-18T12:40:49.182Z,-4.63
2022-12-18T12:43:01.942Z,-4.57
2022-12-18T12:45:08.786Z,-4.57
2022-12-18T12:47:16.993Z,-4.56
2022-12-18T12:49:25.603Z,-4.52
2022-12-18T12:51:30.947Z,-4.50
2022-12-18T12:53:38.870Z,-4.44
2022-12-18T12:55:44.419Z,-4.41
2022-12-18T12:57:58.092Z,-4.43
2022-12-18T13:00:05.670Z,-4.41
2022-12-18T13:02:16.988Z,-4.40
2022-12-18T13:04:29.105Z,-4.36
2022-12-18T13:06:44.685Z,-4.33
2022-12-18T13:08:58.089Z,-4.34
2022-12-18T13:11:15.616Z,-4.35
2022-12-18T13:13:23.626Z,-4.32
2022-12-18T13:15:32.677Z,-4.33
2022-12-18T13:17:39.311Z,-4.32
2022-12-18T13:19:43.883Z,-4.30
2022-12-18T13:21:55.732Z,-4.29
2022-12-18T13:24:16.131Z,-4.30
2022-12-18T13:26:36.863Z,-4.28
2022-12-18T13:28:54.819Z,-4.25
2022-12-18T13:30:59.278Z,-4.23
2022-12-18T13:33:51.051Z,-4.22
2022-12-18T13:36:15.429Z,-4.20
2022-12-18T13:38:23.843Z,-4.17
2022-12-18T13:41:00.167Z,-4.15
2022-12-18T13:43:14.737Z,-4.14
2022-12-18T13:45:43.624Z,-4.12
2022-12-18T13:47:47.657Z,-4.12
2022-12-18T13:49:50.312Z,-4.11
2022-12-18T13:51:56.721Z,-4.10
2022-12-18T13:54:01.963Z,-4.06
2022-12-18T13:56:05.603Z,-4.07
2022-12-18T13:58:08.530Z,-4.05
2022-12-18T14:00:27.093Z,-4.02
2022-12-18T14:02:30.621Z,-4.00
2022-12-18T14:04:35.141Z,-3.98
2022-12-18T14:06:38.482Z,-3.95
2022-12-18T14:08:45.296Z,-3.98
2022-12-18T14:10:50.426Z,-3.93
2022-12-18T14:13:00.345Z,-3.91
2022-12-18T14:15:12.169Z,-3.91
2022-12-18T14:17:16.501Z,-3.90
2022-12-18T14:19:20.559Z,-3.92
2022-12-18T14:21:27.016Z,-3.89
2022-12-18T14:23:35.718Z,-3.90
2022-12-18T14:25:39.642Z,-3.91
2022-12-18T14:27:45.256Z,-3.90
2022-12-18T14:29:48.060Z,-3.91
2022-12-18T14:32:06.955Z,-3.90
2022-12-18T14:34:17.321Z,-3.90
2022-12-18T14:36:22.422Z,-3.90
2022-12-18T14:38:29.013Z,-3.90
2022-12-18T14:40:31.636Z,-3.92
2022-12-18T14:42:36.037Z,-3.94
2022-12-18T14:44:50.683Z,-3.91
2022-12-18T14:47:00.340Z,-3.94
2022-12-18T14:49:05.381Z,-3.97
2022-12-18T14:51:17.174Z,-3.98
2022-12-18T14:53:25.531Z,-3.97
2022-12-18T14:55:28.416Z,-4.00
2022-12-18T14:57:38.764Z,-4.01
2022-12-18T14:59:41.465Z,-4.03
2022-12-18T15:01:49.891Z,-4.04
2022-12-18T15:03:53.334Z,-4.05
2022-12-18T15:05:56.419Z,-4.07
2022-12-18T15:08:01.599Z,-4.09
2022-12-18T15:10:12.158Z,-4.05
2022-12-18T15:12:36.849Z,-4.12
2022-12-18T15:14:42.595Z,-4.17
2022-12-18T15:16:46.310Z,-4.16
2022-12-18T15:18:49.732Z,-4.19
2022-12-18T15:20:55.803Z,-4.21
2022-12-18T15:22:58.430Z,-4.21
2022-12-18T15:25:01.769Z,-4.23
2022-12-18T15:27:04.802Z,-4.24
2022-12-18T15:29:22.040Z,-4.26
2022-12-18T15:31:32.489Z,-4.31
2022-12-18T15:33:39.611Z,-4.35
2022-12-18T15:35:46.971Z,-4.37
2022-12-18T15:37:50.676Z,-4.41
2022-12-18T15:39:53.292Z,-4.37
2022-12-18T15:42:13.605Z,-4.45
2022-12-18T15:44:26.479Z,-4.49
2022-12-18T15:46:29.359Z,-4.50
2022-12-18T15:48:33.886Z,-4.53
2022-12-18T15:50:36.673Z,-4.49
2022-12-18T15:52:43.177Z,-4.55
2022-12-18T15:55:03.256Z,-4.63
2022-12-18T15:57:23.263Z,-4.63
2022-12-18T15:59:27.613Z,-4.69
2022-12-18T16:01:32.552Z,-4.76
2022-12-18T16:03:35.284Z,-4.77
2022-12-18T16:05:38.158Z,-4.79
2022-12-18T16:07:40.838Z,-4.80
2022-12-18T16:09:43.820Z,-4.89
2022-12-18T16:11:48.778Z,-4.94
2022-12-18T16:13:51.360Z,-4.93
2022-12-18T16:15:55.698Z,-4.92
2022-12-18T16:17:58.314Z,-4.90
2022-12-18T16:20:01.098Z,-4.90
2022-12-18T16:22:03.827Z,-4.90
2022-12-18T16:24:06.957Z,-4.88
2022-12-18T16:26:09.583Z,-4.91
2022-12-18T16:28:12.226Z,-4.92
2022-12-18T16:30:16.412Z,-4.93
2022-12-18T16:32:23.413Z,-4.91
2022-12-18T16:34:29.262Z,-4.88
2022-12-18T16:36:32.277Z,-4.85
2022-12-18T16:38:34.846Z,-4.84
2022-12-18T16:40:57.586Z,-4.81
2022-12-18T16:43:00.280Z,-4.75
2022-12-18T16:45:02.916Z,-4.66
2022-12-18T16:47:05.797Z,-4.60
2022-12-18T16:49:12.226Z,-4.56
2022-12-18T16:51:14.892Z,-4.41
2022-12-18T16:53:17.507Z,-4.21
2022-12-18T16:55:20.344Z,-4.30
2022-12-18T16:57:25.217Z,-4.19
2022-12-18T16:59:29.197Z,-4.22
2022-12-18T17:01:33.762Z,-4.14
2022-12-18T17:03:36.540Z,-4.12
2022-12-18T17:05:40.665Z,-4.05
2022-12-18T17:07:43.271Z,-4.05
2022-12-18T17:09:45.972Z,-4.03
2022-12-18T17:11:48.623Z,-4.03
2022-12-18T17:13:51.284Z,-4.04
2022-12-18T17:15:54.189Z,-4.03
2022-12-18T17:17:57.445Z,-4.01
2022-12-18T17:20:00.033Z,-4.03
2022-12-18T17:22:04.808Z,-4.02
2022-12-18T17:24:07.796Z,-4.04
2022-12-18T17:26:11.239Z,-4.03
2022-12-18T17:28:13.907Z,-4.02
2022-12-18T17:30:16.606Z,-4.03
2022-12-18T17:32:19.306Z,-4.05
2022-12-18T17:34:22.039Z,-4.06
2022-12-18T17:36:25.119Z,-4.11
2022-12-18T17:38:29.047Z,-4.12
2022-12-18T17:40:33.694Z,-4.11
2022-12-18T17:42:36.303Z,-4.13
2022-12-18T17:44:39.255Z,-4.09
2022-12-18T17:46:42.148Z,-4.06
2022-12-18T17:48:44.831Z,-4.09
2022-12-18T17:50:47.445Z,-4.09
2022-12-18T17:52:50.016Z,-4.13
2022-12-18T17:54:53.977Z,-4.14
2022-12-18T17:56:56.713Z,-4.11
2022-12-18T17:58:59.466Z,-4.09
2022-12-18T18:01:02.262Z,-4.05
2022-12-18T18:03:05.259Z,-4.08
2022-12-18T18:05:08.377Z,-4.04
2022-12-18T18:07:13.730Z,-4.04
2022-12-18T18:09:17.249Z,-4.04
2022-12-18T18:11:41.030Z,-3.99
2022-12-18T18:14:01.890Z,-3.97
2022-12-18T18:16:04.554Z,-3.92
2022-12-18T18:18:07.147Z,-3.99
2022-12-18T18:20:10.941Z,-4.02
2022-12-18T18:22:13.633Z,-3.99
2022-12-18T18:24:19.304Z,-4.02
2022-12-18T18:26:23.268Z,-4.02
2022-12-18T18:28:29.250Z,-4.03
2022-12-18T18:30:31.866Z,-3.98
2022-12-18T18:32:38.079Z,-4.00
2022-12-18T18:34:40.872Z,-3.99
2022-12-18T18:36:45.444Z,-3.97
2022-12-18T18:38:48.683Z,-3.95
2022-12-18T18:40:59.451Z,-3.93
2022-12-18T18:43:03.448Z,-3.95
2022-12-18T18:45:08.754Z,-3.97
2022-12-18T18:47:11.363Z,-3.94
2022-12-18T18:49:14.694Z,-3.91
2022-12-18T18:51:21.123Z,-3.93
2022-12-18T18:53:24.403Z,-3.97
2022-12-18T18:55:27.043Z,-3.96
2022-12-18T18:57:30.699Z,-3.93
2022-12-18T18:59:34.805Z,-3.96
2022-12-18T19:01:37.560Z,-3.96
2022-12-18T19:03:40.834Z,-3.97
2022-12-18T19:05:47.528Z,-3.99
2022-12-18T19:07:50.312Z,-3.96
2022-12-18T19:09:54.113Z,-3.91
2022-12-18T19:12:14.504Z,-3.94
2022-12-18T19:14:17.509Z,-3.94
2022-12-18T19:16:21.544Z,-3.93
2022-12-18T19:18:27.070Z,-3.94
2022-12-18T19:20:29.746Z,-3.96
2022-12-18T19:22:32.373Z,-3.98
2022-12-18T19:24:34.993Z,-3.98
2022-12-18T19:26:37.613Z,-3.94
2022-12-18T19:28:40.834Z,-3.92
2022-12-18T19:30:44.190Z,-3.91
2022-12-18T19:32:48.112Z,-3.90
2022-12-18T19:34:50.727Z,-3.90
2022-12-18T19:36:59.446Z,-3.93
2022-12-18T19:39:08.025Z,-3.86
2022-12-18T19:41:10.674Z,-3.92
2022-12-18T19:43:14.509Z,-3.94
2022-12-18T19:45:17.413Z,-3.91
2022-12-18T19:47:20.018Z,-3.92
2022-12-18T19:49:23.915Z,-3.90
2022-12-18T19:51:29.228Z,-3.88
2022-12-18T19:53:32.004Z,-3.82
2022-12-18T19:55:34.622Z,-3.83
2022-12-18T19:57:37.208Z,-3.87
2022-12-18T19:59:39.799Z,-3.87
2022-12-18T20:01:43.368Z,-3.86
2022-12-18T20:03:48.012Z,-3.89
2022-12-18T20:05:56.674Z,-3.82
2022-12-18T20:07:59.270Z,-3.80
2022-12-18T20:10:08.675Z,-3.78
2022-12-18T20:12:11.711Z,-3.81
2022-12-18T20:14:20.635Z,-3.77
2022-12-18T20:16:26.273Z,-3.76
2022-12-18T20:18:29.528Z,-3.75
2022-12-18T20:20:32.126Z,-3.76
2022-12-18T20:22:36.462Z,-3.73
2022-12-18T20:24:39.077Z,-3.76
2022-12-18T20:26:41.751Z,-3.75
2022-12-18T20:28:44.509Z,-3.74
2022-12-18T20:30:47.353Z,-3.70
2022-12-18T20:32:49.931Z,-3.81
2022-12-18T20:34:52.477Z,-3.78
2022-12-18T20:36:55.826Z,-3.72
2022-12-18T20:39:01.624Z,-3.74
2022-12-18T20:41:09.762Z,-3.72
2022-12-18T20:43:16.969Z,-3.68
2022-12-18T20:45:20.197Z,-3.67
2022-12-18T20:47:22.827Z,-3.64
2022-12-18T20:49:26.596Z,-3.64
2022-12-18T20:51:30.555Z,-3.74
2022-12-18T20:53:33.658Z,-3.75
2022-12-18T20:55:42.396Z,-3.73
2022-12-18T20:57:45.048Z,-3.73
2022-12-18T20:59:48.470Z,-3.74
2022-12-18T21:01:52.091Z,-3.77
2022-12-18T21:03:55.053Z,-3.71
2022-12-18T21:05:57.644Z,-3.87
2022-12-18T21:08:00.302Z,-3.80
2022-12-18T21:10:07.377Z,-3.79
2022-12-18T21:12:40.664Z,-3.78
2022-12-18T21:14:47.972Z,-3.87
2022-12-18T21:16:53.252Z,-3.82
2022-12-18T21:18:55.973Z,-3.81
2022-12-18T21:20:59.134Z,-3.76
2022-12-18T21:23:15.576Z,-3.75
2022-12-18T21:25:19.364Z,-3.70
2022-12-18T21:27:23.367Z,-3.64
2022-12-18T21:29:27.218Z,-3.62
2022-12-18T21:31:31.652Z,-3.57
2022-12-18T21:33:34.354Z,-3.60
2022-12-18T21:35:37.154Z,-3.56
2022-12-18T21:37:39.852Z,-3.57
2022-12-18T21:39:42.553Z,-3.58
2022-12-18T21:42:03.414Z,-3.47
2022-12-18T21:44:07.581Z,-3.59
2022-12-18T21:46:12.505Z,-3.63
2022-12-18T21:48:15.160Z,-3.63
2022-12-18T21:50:18.024Z,-3.57
2022-12-18T21:52:22.184Z,-3.55
2022-12-18T21:54:35.497Z,-3.54
2022-12-18T21:56:48.741Z,-3.52
2022-12-18T21:58:56.824Z,-3.46
2022-12-18T22:01:01.389Z,-3.52
2022-12-18T22:03:18.602Z,-3.52
2022-12-18T22:05:21.763Z,-3.48
2022-12-18T22:07:24.406Z,-3.49
2022-12-18T22:09:27.274Z,-3.49
2022-12-18T22:11:29.920Z,-3.47
2022-12-18T22:13:32.505Z,-3.44
2022-12-18T22:15:35.245Z,-3.41
2022-12-18T22:17:39.336Z,-3.39
2022-12-18T22:19:43.111Z,-3.36
2022-12-18T22:21:49.640Z,-3.33
2022-12-18T22:23:56.997Z,-3.31
2022-12-18T22:25:59.809Z,-3.26
2022-12-18T22:28:19.871Z,-3.26
2022-12-18T22:30:22.537Z,-3.21
2022-12-18T22:32:31.377Z,-3.18
2022-12-18T22:34:36.906Z,-3.22
2022-12-18T22:36:41.777Z,-3.20
2022-12-18T22:38:44.587Z,-3.21
2022-12-18T22:40:47.192Z,-3.24
2022-12-18T22:42:49.901Z,-3.20
2022-12-18T22:44:53.992Z,-3.15
2022-12-18T22:47:03.540Z,-3.13
2022-12-18T22:49:13.466Z,-3.15
2022-12-18T22:51:21.815Z,-3.12
2022-12-18T22:53:24.529Z,-3.13
2022-12-18T22:55:27.141Z,-3.17
2022-12-18T22:57:29.718Z,-3.16
2022-12-18T22:59:32.288Z,-3.23
2022-12-18T23:01:35.025Z,-3.21
2022-12-18T23:03:39.216Z,-3.17
2022-12-18T23:05:41.948Z,-3.17
2022-12-18T23:07:45.927Z,-3.15
2022-12-18T23:09:49.373Z,-3.13
2022-12-18T23:11:53.340Z,-3.12
2022-12-18T23:13:56.744Z,-3.07
2022-12-18T23:16:01.521Z,-3.06
2022-12-18T23:18:04.164Z,-3.07
2022-12-18T23:20:07.890Z,-3.07
2022-12-18T23:22:11.938Z,-3.05
2022-12-18T23:24:16.445Z,-3.04
2022-12-18T23:26:21.102Z,-2.84
2022-12-18T23:28:23.757Z,-2.80
2022-12-18T23:30:27.887Z,-2.90
2022-12-18T23:32:30.510Z,-2.86
2022-12-18T23:34:35.706Z,-2.76
2022-12-18T23:36:45.715Z,-2.85
2022-12-18T23:38:51.086Z,-2.84
2022-12-18T23:40:56.504Z,-2.85
2022-12-18T23:43:00.546Z,-2.81
2022-12-18T23:45:03.904Z,-2.84
2022-12-18T23:47:19.223Z,-2.86
2022-12-18T23:49:21.807Z,-2.85
2022-12-18T23:51:25.687Z,-2.80
2022-12-18T23:53:28.370Z,-2.82
2022-12-18T23:55:31.056Z,-2.80
2022-12-18T23:57:34.978Z,-2.82
2022-12-18T23:59:37.590Z,-2.83
